createdAt,value
2023-02-12T00:01:26.347Z,77.83
2023-02-12T00:03:55.261Z,77.73
2023-02-12T00:06:24.249Z,77.72
2023-02-12T00:08:54.231Z,77.83
2023-02-12T00:11:25.819Z,77.85
2023-02-12T00:13:55.292Z,77.88
2023-02-12T00:16:29.028Z,77.72
2023-02-12T00:18:59.043Z,77.49
2023-02-12T00:21:29.021Z,76.96
2023-02-12T00:23:57.869Z,76.79
2023-02-12T00:26:26.093Z,77.00
2023-02-12T00:28:55.093Z,76.95
2023-02-12T00:31:26.980Z,77.01
2023-02-12T00:33:59.441Z,76.60
2023-02-12T00:36:29.544Z,76.70
2023-02-12T00:38:58.305Z,76.65
2023-02-12T00:41:27.364Z,76.70
2023-02-12T00:43:55.973Z,76.62
2023-02-12T00:46:24.203Z,76.44
2023-02-12T00:48:52.547Z,76.53
2023-02-12T00:51:21.973Z,76.71
2023-02-12T00:53:50.085Z,76.86
2023-02-12T00:56:18.143Z,76.88
2023-02-12T00:58:48.958Z,76.96
2023-02-12T01:01:18.012Z,76.90
2023-02-12T01:03:46.098Z,77.10
2023-02-12T01:06:14.222Z,77.41
2023-02-12T01:08:42.252Z,77.41
2023-02-12T01:11:13.110Z,77.42
2023-02-12T01:13:41.410Z,77.26
2023-02-12T01:16:16.297Z,77.15
2023-02-12T01:18:45.884Z,77.12
2023-02-12T01:21:19.485Z,77.46
2023-02-12T01:23:48.605Z,77.69
2023-02-12T01:26:18.127Z,78.02
2023-02-12T01:28:51.208Z,78.60
2023-02-12T01:31:23.160Z,78.98
2023-02-12T01:33:54.410Z,78.96
2023-02-12T01:36:26.332Z,78.74
2023-02-12T01:38:56.126Z,78.88
2023-02-12T01:41:29.675Z,78.96
2023-02-12T01:44:09.944Z,79.59
2023-02-12T01:46:38.678Z,80.08
2023-02-12T01:49:12.681Z,80.02
2023-02-12T01:51:43.510Z,80.12
2023-02-12T01:54:15.203Z,80.16
2023-02-12T01:56:43.820Z,80.60
2023-02-12T01:59:13.110Z,80.90
2023-02-12T02:01:41.357Z,80.76
2023-02-12T02:04:14.138Z,81.22
2023-02-12T02:07:05.543Z,81.20
2023-02-12T02:09:36.681Z,81.21
2023-02-12T02:12:24.739Z,80.98
2023-02-12T02:14:57.104Z,81.06
2023-02-12T02:17:37.424Z,81.21
2023-02-12T02:20:20.584Z,81.56
2023-02-12T02:23:10.078Z,81.74
2023-02-12T02:26:05.887Z,81.91
2023-02-12T02:28:44.643Z,81.70
2023-02-12T02:31:17.912Z,81.80
2023-02-12T02:33:59.657Z,81.98
2023-02-12T02:36:32.445Z,81.90
2023-02-12T02:39:06.624Z,82.10
2023-02-12T02:41:59.601Z,82.21
2023-02-12T02:44:37.382Z,82.17
2023-02-12T02:47:10.214Z,81.99
2023-02-12T02:49:56.359Z,81.74
2023-02-12T02:52:37.453Z,82.04
2023-02-12T02:55:12.460Z,82.60
2023-02-12T02:58:12.210Z,82.74
2023-02-12T03:04:46.563Z,82.25
2023-02-12T03:07:25.149Z,82.17
2023-02-12T03:09:59.358Z,82.06
2023-02-12T03:12:44.982Z,82.12
2023-02-12T03:15:27.106Z,82.05
2023-02-12T03:17:58.823Z,81.97
2023-02-12T03:20:33.934Z,82.03
2023-02-12T03:23:14.532Z,81.89
2023-02-12T03:25:47.300Z,81.95
2023-02-12T03:28:20.820Z,81.85
2023-02-12T03:30:59.958Z,81.97
2023-02-12T03:33:34.034Z,82.15
2023-02-12T03:36:10.989Z,82.14
2023-02-12T03:38:46.255Z,82.01
2023-02-12T03:41:31.508Z,82.32
2023-02-12T03:44:21.318Z,82.48
2023-02-12T03:47:09.472Z,82.93
2023-02-12T03:50:00.858Z,82.54
2023-02-12T03:52:30.491Z,82.61
2023-02-12T03:54:59.074Z,82.74
2023-02-12T03:57:34.235Z,82.45
2023-02-12T04:00:08.929Z,82.36
2023-02-12T04:02:43.495Z,82.42
2023-02-12T04:05:24.141Z,82.30
2023-02-12T04:07:54.146Z,82.15
2023-02-12T04:10:45.699Z,82.22
2023-02-12T04:13:26.448Z,82.15
2023-02-12T04:16:12.505Z,82.10
2023-02-12T04:18:52.115Z,81.88
2023-02-12T04:21:48.033Z,82.11
2023-02-12T04:24:24.562Z,82.18
2023-02-12T04:27:03.051Z,82.23
2023-02-12T04:29:56.206Z,82.30
2023-02-12T04:32:38.300Z,82.25
2023-02-12T04:35:27.995Z,82.09
2023-02-12T04:38:18.647Z,82.22
2023-02-12T04:40:48.188Z,82.10
2023-02-12T04:43:30.136Z,81.90
2023-02-12T04:45:58.420Z,81.87
2023-02-12T04:48:26.752Z,81.89
2023-02-12T04:50:54.708Z,82.23
2023-02-12T04:53:22.791Z,82.26
2023-02-12T04:55:50.761Z,82.57
2023-02-12T04:58:18.858Z,82.73
2023-02-12T05:00:46.894Z,82.97
2023-02-12T05:03:14.824Z,83.02
2023-02-12T05:05:42.839Z,82.91
2023-02-12T05:08:10.877Z,82.90
2023-02-12T05:10:38.921Z,82.62
2023-02-12T05:13:08.020Z,82.41
2023-02-12T05:15:38.474Z,82.35
2023-02-12T05:18:06.578Z,82.16
2023-02-12T05:20:34.438Z,82.11
2023-02-12T05:23:02.472Z,82.02
2023-02-12T05:25:32.707Z,81.76
2023-02-12T05:28:00.706Z,81.81
2023-02-12T05:30:28.688Z,81.97
2023-02-12T05:33:02.621Z,81.78
2023-02-12T05:35:30.526Z,81.75
2023-02-12T05:37:58.496Z,81.67
2023-02-12T05:40:26.637Z,82.13
2023-02-12T05:42:54.645Z,82.17
2023-02-12T05:45:27.874Z,81.78
2023-02-12T05:47:56.559Z,81.30
2023-02-12T05:50:24.882Z,81.16
2023-02-12T05:53:01.447Z,81.25
2023-02-12T05:55:29.411Z,81.51
2023-02-12T05:57:57.336Z,81.76
2023-02-12T06:00:25.488Z,81.89
2023-02-12T06:02:53.654Z,81.88
2023-02-12T06:05:21.678Z,81.77
2023-02-12T06:07:49.693Z,81.51
2023-02-12T06:10:17.853Z,81.30
2023-02-12T06:12:46.293Z,81.27
2023-02-12T06:15:14.267Z,81.33
2023-02-12T06:17:42.167Z,81.25
2023-02-12T06:20:10.310Z,80.91
2023-02-12T06:22:38.486Z,80.78
2023-02-12T06:25:06.963Z,81.10
2023-02-12T06:27:34.935Z,80.89
2023-02-12T06:30:03.211Z,80.99
2023-02-12T06:32:31.259Z,81.06
2023-02-12T06:34:59.282Z,81.01
2023-02-12T06:37:27.340Z,81.03
2023-02-12T06:39:55.659Z,81.12
2023-02-12T06:42:23.532Z,81.19
2023-02-12T06:44:53.041Z,81.37
2023-02-12T06:47:21.686Z,81.92
2023-02-12T06:49:49.711Z,81.98
2023-02-12T06:52:17.703Z,81.71
2023-02-12T06:54:45.563Z,81.49
2023-02-12T06:57:13.623Z,81.51
2023-02-12T06:59:41.566Z,81.63
2023-02-12T07:02:11.458Z,81.60
2023-02-12T07:04:39.502Z,81.59
2023-02-12T07:07:07.644Z,81.53
2023-02-12T07:09:35.815Z,81.59
2023-02-12T07:12:04.541Z,81.57
2023-02-12T07:14:34.205Z,81.56
2023-02-12T07:17:04.021Z,81.70
2023-02-12T07:19:32.473Z,81.53
2023-02-12T07:22:00.833Z,81.53
2023-02-12T07:24:28.843Z,81.49
2023-02-12T07:26:56.880Z,81.38
2023-02-12T07:29:25.166Z,81.35
2023-02-12T07:31:53.415Z,81.25
2023-02-12T07:34:21.404Z,81.18
2023-02-12T07:36:49.475Z,81.25
2023-02-12T07:39:17.461Z,81.14
2023-02-12T07:41:45.511Z,81.19
2023-02-12T07:44:13.791Z,81.17
2023-02-12T07:46:49.427Z,81.13
2023-02-12T07:49:20.304Z,80.89
2023-02-12T07:51:51.136Z,80.59
2023-02-12T07:54:19.153Z,80.53
2023-02-12T07:56:47.463Z,80.57
2023-02-12T07:59:18.399Z,80.33
2023-02-12T08:01:51.683Z,80.18
2023-02-12T08:04:23.051Z,80.20
2023-02-12T08:06:54.116Z,80.16
2023-02-12T08:09:24.783Z,80.16
2023-02-12T08:11:53.383Z,80.05
2023-02-12T08:14:22.270Z,79.85
2023-02-12T08:16:51.034Z,79.90
2023-02-12T08:19:24.756Z,79.94
2023-02-12T08:21:54.813Z,79.92
2023-02-12T08:24:23.551Z,79.74
2023-02-12T08:26:52.008Z,79.69
2023-02-12T08:29:22.843Z,79.65
2023-02-12T08:31:56.378Z,79.51
2023-02-12T08:34:31.782Z,79.52
2023-02-12T08:37:00.387Z,79.47
2023-02-12T08:39:30.303Z,79.26
2023-02-12T08:41:59.976Z,78.97
2023-02-12T08:44:28.538Z,78.53
2023-02-12T08:46:56.713Z,78.37
2023-02-12T08:49:29.481Z,78.31
2023-02-12T08:51:59.878Z,78.17
2023-02-12T08:54:29.791Z,77.80
2023-02-12T08:57:00.849Z,77.63
2023-02-12T08:59:29.697Z,77.42
2023-02-12T09:01:57.623Z,76.94
2023-02-12T09:04:28.267Z,76.64
2023-02-12T09:06:56.868Z,75.80
2023-02-12T09:09:24.841Z,75.35
2023-02-12T09:11:53.012Z,75.05
2023-02-12T09:14:24.270Z,74.89
2023-02-12T09:16:57.283Z,74.67
2023-02-12T09:19:25.633Z,74.35
2023-02-12T09:21:56.652Z,74.92
2023-02-12T09:24:27.965Z,74.60
2023-02-12T09:26:56.708Z,73.80
2023-02-12T09:29:24.720Z,73.46
2023-02-12T09:31:52.993Z,73.52
2023-02-12T09:34:21.358Z,72.75
2023-02-12T09:36:49.653Z,71.99
2023-02-12T09:39:17.677Z,72.21
2023-02-12T09:41:45.670Z,72.04
2023-02-12T09:44:35.025Z,70.91
2023-02-12T09:47:17.420Z,71.12
2023-02-12T09:50:14.927Z,70.57
2023-02-12T09:52:43.231Z,69.14
2023-02-12T09:55:19.586Z,68.68
2023-02-12T09:57:47.816Z,68.75
2023-02-12T10:00:28.065Z,68.79
2023-02-12T10:02:56.261Z,69.41
2023-02-12T10:05:29.352Z,70.22
2023-02-12T10:08:22.156Z,70.51
2023-02-12T10:10:52.190Z,69.11
2023-02-12T10:13:38.693Z,67.84
2023-02-12T10:16:26.948Z,68.74
2023-02-12T10:19:06.843Z,67.85
2023-02-12T10:21:59.661Z,67.05
2023-02-12T10:24:57.820Z,66.27
2023-02-12T10:27:43.596Z,66.23
2023-02-12T10:30:31.380Z,66.84
2023-02-12T10:33:06.964Z,66.37
2023-02-12T10:35:35.647Z,66.20
2023-02-12T10:38:29.591Z,67.11
2023-02-12T10:41:01.779Z,67.17
2023-02-12T10:43:30.664Z,67.21
2023-02-12T10:45:58.899Z,66.49
2023-02-12T10:48:38.886Z,66.37
2023-02-12T10:51:09.657Z,66.61
2023-02-12T10:53:43.537Z,64.78
2023-02-12T10:56:26.071Z,63.69
2023-02-12T10:58:59.301Z,63.68
2023-02-12T11:01:38.452Z,63.26
2023-02-12T11:04:27.936Z,62.54
2023-02-12T11:07:07.516Z,63.44
2023-02-12T11:09:46.293Z,64.32
2023-02-12T11:12:40.982Z,64.22
2023-02-12T11:15:26.532Z,63.26
2023-02-12T11:18:05.127Z,62.28
2023-02-12T11:20:42.286Z,62.93
2023-02-12T11:23:32.652Z,62.51
2023-02-12T11:26:07.337Z,61.95
2023-02-12T11:28:37.125Z,62.03
2023-02-12T11:31:33.310Z,62.81
2023-02-12T11:34:04.527Z,62.98
2023-02-12T11:36:46.120Z,62.79
2023-02-12T11:39:39.073Z,61.32
2023-02-12T11:42:30.944Z,61.19
2023-02-12T11:45:00.262Z,60.94
2023-02-12T11:47:35.372Z,61.02
2023-02-12T11:50:09.233Z,60.86
2023-02-12T11:52:40.848Z,59.63
2023-02-12T11:55:22.558Z,59.53
2023-02-12T11:58:03.189Z,59.29
2023-02-12T12:00:45.620Z,59.63
2023-02-12T12:03:21.370Z,60.05
2023-02-12T12:05:52.820Z,60.19
2023-02-12T12:08:27.897Z,61.01
2023-02-12T12:11:18.962Z,60.91
2023-02-12T12:13:57.659Z,60.91
2023-02-12T12:16:57.028Z,60.24
2023-02-12T12:19:51.654Z,60.55
2023-02-12T12:22:41.608Z,60.35
2023-02-12T12:25:41.482Z,60.52
2023-02-12T12:28:18.880Z,61.05
2023-02-12T12:31:08.865Z,60.90
2023-02-12T12:33:51.679Z,59.08
2023-02-12T12:36:51.875Z,59.85
2023-02-12T12:39:45.796Z,60.75
2023-02-12T12:42:31.951Z,59.67
2023-02-12T12:45:17.429Z,58.87
2023-02-12T12:48:22.654Z,59.11
2023-02-12T12:51:06.007Z,60.53
2023-02-12T12:53:52.758Z,59.87
2023-02-12T12:56:27.057Z,58.92
2023-02-12T12:59:13.806Z,59.33
2023-02-12T13:01:57.481Z,59.60
2023-02-12T13:04:41.819Z,59.36
2023-02-12T13:07:29.013Z,59.97
2023-02-12T13:10:08.354Z,60.02
2023-02-12T13:12:49.538Z,60.71
2023-02-12T13:15:28.447Z,60.49
2023-02-12T13:18:06.888Z,60.00
2023-02-12T13:21:03.401Z,59.99
2023-02-12T13:23:54.641Z,60.96
2023-02-12T13:26:40.826Z,61.62
2023-02-12T13:29:34.901Z,61.14
2023-02-12T13:32:22.501Z,61.37
2023-02-12T13:34:53.139Z,61.67
2023-02-12T13:37:35.443Z,62.23
2023-02-12T13:40:14.179Z,62.61
2023-02-12T13:42:43.179Z,62.02
2023-02-12T13:45:20.413Z,61.50
2023-02-12T13:48:06.415Z,61.92
2023-02-12T13:51:01.420Z,62.41
2023-02-12T13:53:48.208Z,61.50
2023-02-12T13:56:42.357Z,59.53
2023-02-12T13:59:51.068Z,59.57
2023-02-12T14:02:38.971Z,60.34
2023-02-12T14:05:36.923Z,60.49
2023-02-12T14:08:06.598Z,60.63
2023-02-12T14:10:41.257Z,61.15
2023-02-12T14:13:34.210Z,61.14
2023-02-12T14:16:39.556Z,60.36
2023-02-12T14:19:41.694Z,59.82
2023-02-12T14:22:29.822Z,59.75
2023-02-12T14:24:59.295Z,60.09
2023-02-12T14:27:33.297Z,60.50
2023-02-12T14:30:04.344Z,60.00
2023-02-12T14:32:44.909Z,60.09
2023-02-12T14:35:32.137Z,59.90
2023-02-12T14:38:01.142Z,59.83
2023-02-12T14:40:47.020Z,60.31
2023-02-12T14:43:57.146Z,60.87
2023-02-12T14:46:25.211Z,60.86
2023-02-12T14:49:05.980Z,61.24
2023-02-12T14:51:53.503Z,61.13
2023-02-12T14:54:30.545Z,61.46
2023-02-12T14:57:02.959Z,61.99
2023-02-12T14:59:39.507Z,62.31
2023-02-12T15:02:09.430Z,62.54
2023-02-12T15:04:41.372Z,62.79
2023-02-12T15:07:17.215Z,63.14
2023-02-12T15:09:52.374Z,63.29
2023-02-12T15:12:38.346Z,63.57
2023-02-12T15:15:34.790Z,63.92
2023-02-12T15:18:20.634Z,64.07
2023-02-12T15:20:55.237Z,64.42
2023-02-12T15:24:08.023Z,64.43
2023-02-12T15:26:47.386Z,64.74
2023-02-12T15:29:55.849Z,64.84
2023-02-12T15:32:27.113Z,65.31
2023-02-12T15:34:56.186Z,65.60
2023-02-12T15:37:30.784Z,65.72
2023-02-12T15:40:01.639Z,65.90
2023-02-12T15:42:33.831Z,66.16
2023-02-12T15:45:25.937Z,66.60
2023-02-12T15:48:00.969Z,66.65
2023-02-12T15:50:31.277Z,66.91
2023-02-12T15:52:59.669Z,68.09
2023-02-12T15:55:33.304Z,68.45
2023-02-12T15:58:03.382Z,68.37
2023-02-12T16:00:43.318Z,68.37
2023-02-12T16:03:28.969Z,68.51
2023-02-12T16:06:03.972Z,68.97
2023-02-12T16:08:34.139Z,69.46
2023-02-12T16:11:13.718Z,70.03
2023-02-12T16:13:51.826Z,70.40
2023-02-12T16:16:39.935Z,70.22
2023-02-12T16:19:22.531Z,70.49
2023-02-12T16:21:56.565Z,70.96
2023-02-12T16:24:33.561Z,70.66
2023-02-12T16:27:09.588Z,70.64
2023-02-12T16:29:45.945Z,70.70
2023-02-12T16:32:36.256Z,71.04
2023-02-12T16:35:33.866Z,71.51
2023-02-12T16:38:03.899Z,71.81
2023-02-12T16:40:35.282Z,72.48
2023-02-12T16:43:23.154Z,72.57
2023-02-12T16:45:59.804Z,72.47
2023-02-12T16:48:28.169Z,72.36
2023-02-12T16:50:59.714Z,72.51
2023-02-12T16:53:30.700Z,72.75
2023-02-12T16:56:00.599Z,72.99
2023-02-12T16:58:28.732Z,73.17
2023-02-12T17:00:58.927Z,73.36
2023-02-12T17:03:27.112Z,73.40
2023-02-12T17:05:57.123Z,73.32
2023-02-12T17:08:25.636Z,73.58
2023-02-12T17:10:53.724Z,73.83
2023-02-12T17:13:21.848Z,73.95
2023-02-12T17:15:59.743Z,74.66
2023-02-12T17:18:28.695Z,74.64
2023-02-12T17:21:17.161Z,74.75
2023-02-12T17:23:45.228Z,75.22
2023-02-12T17:26:13.345Z,75.11
2023-02-12T17:28:41.555Z,75.20
2023-02-12T17:31:10.132Z,75.21
2023-02-12T17:33:39.513Z,75.14
2023-02-12T17:36:08.353Z,75.13
2023-02-12T17:38:36.779Z,75.31
2023-02-12T17:41:11.670Z,75.58
2023-02-12T17:43:39.748Z,75.76
2023-02-12T17:46:13.283Z,75.77
2023-02-12T17:48:41.353Z,76.05
2023-02-12T17:51:14.605Z,76.42
2023-02-12T17:53:43.036Z,76.77
2023-02-12T17:56:17.776Z,76.76
2023-02-12T17:58:46.915Z,76.66
2023-02-12T18:01:18.731Z,76.94
2023-02-12T18:03:47.650Z,77.27
2023-02-12T18:06:26.536Z,77.37
2023-02-12T18:08:56.622Z,77.52
2023-02-12T18:11:25.381Z,77.61
2023-02-12T18:13:55.856Z,77.67
2023-02-12T18:16:26.336Z,77.75
2023-02-12T18:18:55.087Z,78.03
2023-02-12T18:21:23.813Z,77.95
2023-02-12T18:23:54.075Z,77.99
2023-02-12T18:26:22.962Z,78.10
2023-02-12T18:28:51.258Z,78.11
2023-02-12T18:31:20.613Z,78.13
2023-02-12T18:33:49.074Z,78.42
2023-02-12T18:36:19.748Z,78.29
2023-02-12T18:38:49.481Z,78.44
2023-02-12T18:41:19.208Z,78.43
2023-02-12T18:43:47.970Z,78.70
2023-02-12T18:46:19.815Z,78.63
2023-02-12T18:48:49.149Z,78.61
2023-02-12T18:51:22.283Z,78.68
2023-02-12T18:54:01.945Z,78.83
2023-02-12T18:56:40.987Z,78.84
2023-02-12T18:59:11.754Z,78.78
2023-02-12T19:01:40.152Z,78.86
2023-02-12T19:04:10.936Z,79.04
2023-02-12T19:06:42.470Z,79.22
2023-02-12T19:09:12.439Z,79.56
2023-02-12T19:11:40.430Z,79.55
2023-02-12T19:14:08.342Z,79.59
2023-02-12T19:16:36.576Z,79.59
2023-02-12T19:19:04.738Z,79.50
2023-02-12T19:21:32.845Z,79.45
2023-02-12T19:24:03.236Z,79.49
2023-02-12T19:26:33.156Z,79.97
2023-02-12T19:29:02.811Z,79.99
2023-02-12T19:31:34.866Z,79.96
2023-02-12T19:34:06.878Z,79.97
2023-02-12T19:36:36.739Z,79.89
2023-02-12T19:39:06.152Z,80.03
2023-02-12T19:41:41.170Z,80.01
2023-02-12T19:44:12.664Z,80.04
2023-02-12T19:46:41.654Z,79.86
2023-02-12T19:49:15.810Z,79.84
2023-02-12T19:51:44.829Z,79.89
2023-02-12T19:54:14.927Z,79.96
2023-02-12T19:56:43.934Z,79.98
2023-02-12T19:59:17.499Z,79.96
2023-02-12T20:01:46.648Z,79.92
2023-02-12T20:04:19.410Z,80.22
2023-02-12T20:06:51.462Z,80.16
2023-02-12T20:09:21.661Z,80.10
2023-02-12T20:11:49.764Z,80.25
2023-02-12T20:14:18.155Z,80.26
2023-02-12T20:16:48.034Z,80.19
2023-02-12T20:19:23.364Z,80.28
2023-02-12T20:21:55.509Z,80.40
2023-02-12T20:24:30.114Z,80.59
2023-02-12T20:27:00.243Z,80.51
2023-02-12T20:29:29.010Z,80.48
2023-02-12T20:31:57.558Z,80.44
2023-02-12T20:34:26.528Z,80.59
2023-02-12T20:36:54.458Z,80.66
2023-02-12T20:39:23.033Z,80.47
2023-02-12T20:41:51.506Z,80.59
2023-02-12T20:44:22.116Z,80.68
2023-02-12T20:46:55.985Z,80.94
2023-02-12T20:49:26.146Z,80.99
2023-02-12T20:51:54.495Z,80.95
2023-02-12T20:54:22.945Z,81.11
2023-02-12T20:56:51.225Z,81.23
2023-02-12T20:59:20.353Z,81.14
2023-02-12T21:01:48.783Z,81.38
2023-02-12T21:04:18.577Z,81.28
2023-02-12T21:06:48.707Z,81.31
2023-02-12T21:09:17.478Z,81.43
2023-02-12T21:11:46.054Z,81.79
2023-02-12T21:14:23.878Z,82.26
2023-02-12T21:16:55.220Z,83.47
2023-02-12T21:19:23.859Z,83.48
2023-02-12T21:21:52.608Z,83.21
2023-02-12T21:24:26.046Z,83.48
2023-02-12T21:26:55.467Z,83.69
2023-02-12T21:29:23.595Z,83.53
2023-02-12T21:31:51.923Z,83.42
2023-02-12T21:34:22.584Z,83.49
2023-02-12T21:36:53.139Z,83.51
2023-02-12T21:39:27.563Z,83.78
2023-02-12T21:42:02.600Z,83.77
2023-02-12T21:44:35.474Z,83.98
2023-02-12T21:47:04.348Z,84.19
2023-02-12T21:49:32.594Z,84.67
2023-02-12T21:52:03.680Z,84.95
2023-02-12T21:54:33.145Z,84.73
2023-02-12T21:57:01.863Z,84.65
2023-02-12T21:59:40.000Z,84.57
2023-02-12T22:02:09.539Z,84.56
2023-02-12T22:04:37.551Z,84.44
2023-02-12T22:07:06.460Z,84.66
2023-02-12T22:09:35.718Z,84.81
2023-02-12T22:12:04.012Z,84.85
2023-02-12T22:14:32.073Z,85.01
2023-02-12T22:17:01.582Z,85.01
2023-02-12T22:19:29.553Z,84.80
2023-02-12T22:21:57.526Z,84.78
2023-02-12T22:24:25.450Z,85.04
2023-02-12T22:26:55.183Z,85.11
2023-02-12T22:29:23.923Z,85.18
2023-02-12T22:31:52.526Z,85.34
2023-02-12T22:34:20.686Z,85.54
2023-02-12T22:36:48.895Z,85.34
2023-02-12T22:39:17.765Z,85.06
2023-02-12T22:41:46.035Z,84.88
2023-02-12T22:44:15.331Z,84.66
2023-02-12T22:46:44.726Z,84.71
2023-02-12T22:49:13.070Z,84.80
2023-02-12T22:51:41.322Z,84.75
2023-02-12T22:54:14.949Z,84.90
2023-02-12T22:56:45.902Z,85.32
2023-02-12T22:59:14.493Z,85.97
2023-02-12T23:01:43.425Z,85.95
2023-02-12T23:04:16.955Z,85.80
2023-02-12T23:06:46.249Z,85.58
2023-02-12T23:09:16.764Z,85.37
2023-02-12T23:11:44.875Z,85.26
2023-02-12T23:14:13.868Z,85.12
2023-02-12T23:16:41.904Z,85.07
2023-02-12T23:19:11.110Z,85.02
2023-02-12T23:21:39.659Z,85.42
2023-02-12T23:24:07.910Z,85.92
2023-02-12T23:26:36.761Z,85.77
2023-02-12T23:29:04.659Z,85.97
2023-02-12T23:31:32.616Z,85.79
2023-02-12T23:34:00.665Z,86.02
2023-02-12T23:36:29.463Z,85.98
2023-02-12T23:38:59.473Z,85.62
2023-02-12T23:41:27.364Z,85.65
2023-02-12T23:43:55.348Z,85.77
2023-02-12T23:46:23.279Z,86.04
2023-02-12T23:48:51.239Z,86.24
2023-02-12T23:51:19.178Z,86.18
2023-02-12T23:53:47.042Z,86.21
2023-02-12T23:56:15.372Z,86.30
2023-02-12T23:58:43.239Z,86.54
